sensor_id;sensor_type;location;lat;lon;timestamp;noise_LAeq;noise_LA_min;noise_LA_max;noise_LA01;noise_LA95
66399;Laerm;54877;51.504;3.894;2023-02-07T00:01:41;35.22;34.01;37.57;;
66399;Laerm;54877;51.504;3.894;2023-02-07T00:04:06;36.28;33.82;49.35;;
66399;Laerm;54877;51.504;3.894;2023-02-07T00:06:32;35.19;33.55;37.24;;
66399;Laerm;54877;51.504;3.894;2023-02-07T00:08:58;35.19;33.87;41.49;;
66399;Laerm;54877;51.504;3.894;2023-02-07T00:11:24;35.14;33.79;36.33;;
66399;Laerm;54877;51.504;3.894;2023-02-07T00:13:50;35.24;33.91;36.52;;
66399;Laerm;54877;51.504;3.894;2023-02-07T00:16:15;35.19;33.85;36.51;;
66399;Laerm;54877;51.504;3.894;2023-02-07T00:18:41;35.21;33.93;36.47;;
66399;Laerm;54877;51.504;3.894;2023-02-07T00:21:07;35.26;33.89;37.10;;
66399;Laerm;54877;51.504;3.894;2023-02-07T00:23:33;35.20;33.68;37.05;;
66399;Laerm;54877;51.504;3.894;2023-02-07T00:25:59;35.21;33.99;36.53;;
66399;Laerm;54877;51.504;3.894;2023-02-07T00:28:25;35.28;33.94;38.23;;
66399;Laerm;54877;51.504;3.894;2023-02-07T00:30:50;35.34;33.84;42.54;;
66399;Laerm;54877;51.504;3.894;2023-02-07T00:33:15;35.31;33.87;36.89;;
66399;Laerm;54877;51.504;3.894;2023-02-07T00:35:40;35.21;33.94;36.48;;
66399;Laerm;54877;51.504;3.894;2023-02-07T00:38:06;35.20;33.97;37.84;;
66399;Laerm;54877;51.504;3.894;2023-02-07T00:40:31;35.26;33.87;36.83;;
66399;Laerm;54877;51.504;3.894;2023-02-07T00:42:56;35.23;33.72;36.51;;
66399;Laerm;54877;51.504;3.894;2023-02-07T00:45:21;35.33;33.98;37.30;;
66399;Laerm;54877;51.504;3.894;2023-02-07T00:47:47;35.31;33.96;36.61;;
66399;Laerm;54877;51.504;3.894;2023-02-07T00:50:12;35.27;33.62;36.52;;
66399;Laerm;54877;51.504;3.894;2023-02-07T00:52:37;35.22;33.88;37.28;;
66399;Laerm;54877;51.504;3.894;2023-02-07T00:55:02;35.21;33.81;36.72;;
66399;Laerm;54877;51.504;3.894;2023-02-07T00:57:28;35.32;33.97;36.84;;
66399;Laerm;54877;51.504;3.894;2023-02-07T00:59:53;35.26;33.38;38.13;;
66399;Laerm;54877;51.504;3.894;2023-02-07T01:02:18;35.34;33.92;38.83;;
66399;Laerm;54877;51.504;3.894;2023-02-07T01:04:43;35.16;33.66;36.46;;
66399;Laerm;54877;51.504;3.894;2023-02-07T01:07:08;35.19;33.81;36.86;;
66399;Laerm;54877;51.504;3.894;2023-02-07T01:09:34;37.63;33.54;57.76;;
66399;Laerm;54877;51.504;3.894;2023-02-07T01:11:59;35.15;33.64;41.19;;
66399;Laerm;54877;51.504;3.894;2023-02-07T01:14:24;35.19;33.62;36.51;;
66399;Laerm;54877;51.504;3.894;2023-02-07T01:16:49;35.26;33.77;36.86;;
66399;Laerm;54877;51.504;3.894;2023-02-07T01:19:15;35.20;33.83;37.11;;
66399;Laerm;54877;51.504;3.894;2023-02-07T01:21:41;35.17;33.87;36.52;;
66399;Laerm;54877;51.504;3.894;2023-02-07T01:24:06;35.17;33.86;36.56;;
66399;Laerm;54877;51.504;3.894;2023-02-07T01:26:32;35.15;33.80;36.40;;
66399;Laerm;54877;51.504;3.894;2023-02-07T01:28:58;35.14;33.81;36.49;;
66399;Laerm;54877;51.504;3.894;2023-02-07T01:31:23;35.20;33.63;37.42;;
66399;Laerm;54877;51.504;3.894;2023-02-07T01:33:51;35.15;33.70;36.55;;
66399;Laerm;54877;51.504;3.894;2023-02-07T01:36:18;35.16;33.71;36.60;;
66399;Laerm;54877;51.504;3.894;2023-02-07T01:38:43;35.18;33.87;36.53;;
66399;Laerm;54877;51.504;3.894;2023-02-07T01:41:09;35.13;33.93;36.37;;
66399;Laerm;54877;51.504;3.894;2023-02-07T01:43:34;35.15;33.54;36.45;;
66399;Laerm;54877;51.504;3.894;2023-02-07T01:45:59;35.25;33.74;36.43;;
66399;Laerm;54877;51.504;3.894;2023-02-07T01:48:28;35.27;33.96;36.55;;
66399;Laerm;54877;51.504;3.894;2023-02-07T01:50:55;35.21;33.71;36.63;;
66399;Laerm;54877;51.504;3.894;2023-02-07T01:53:24;35.16;33.65;36.53;;
66399;Laerm;54877;51.504;3.894;2023-02-07T01:55:52;35.12;33.92;36.31;;
66399;Laerm;54877;51.504;3.894;2023-02-07T01:58:17;35.12;33.81;36.23;;
66399;Laerm;54877;51.504;3.894;2023-02-07T02:00:43;35.15;33.62;37.59;;
66399;Laerm;54877;51.504;3.894;2023-02-07T02:03:09;35.15;33.70;36.91;;
66399;Laerm;54877;51.504;3.894;2023-02-07T02:05:34;35.12;33.55;41.58;;
66399;Laerm;54877;51.504;3.894;2023-02-07T02:08:01;35.21;33.60;36.91;;
66399;Laerm;54877;51.504;3.894;2023-02-07T02:10:30;35.35;33.91;37.45;;
66399;Laerm;54877;51.504;3.894;2023-02-07T02:13:13;35.17;33.85;36.65;;
66399;Laerm;54877;51.504;3.894;2023-02-07T02:18:26;35.30;33.87;36.79;;
66399;Laerm;54877;51.504;3.894;2023-02-07T02:34:21;36.10;33.74;47.47;;
66399;Laerm;54877;51.504;3.894;2023-02-07T02:37:13;35.25;33.97;36.45;;
66399;Laerm;54877;51.504;3.894;2023-02-07T02:42:10;35.23;33.96;36.73;;
66399;Laerm;54877;51.504;3.894;2023-02-07T02:44:41;35.22;33.76;36.41;;
66399;Laerm;54877;51.504;3.894;2023-02-07T02:47:09;35.25;33.81;37.18;;
66399;Laerm;54877;51.504;3.894;2023-02-07T02:49:35;35.16;33.80;36.49;;
66399;Laerm;54877;51.504;3.894;2023-02-07T02:52:01;35.20;33.78;36.68;;
66399;Laerm;54877;51.504;3.894;2023-02-07T02:57:02;35.26;33.76;36.48;;
66399;Laerm;54877;51.504;3.894;2023-02-07T02:59:37;35.28;34.02;36.58;;
66399;Laerm;54877;51.504;3.894;2023-02-07T03:04:50;35.33;33.85;36.68;;
66399;Laerm;54877;51.504;3.894;2023-02-07T03:07:40;35.36;33.97;37.20;;
66399;Laerm;54877;51.504;3.894;2023-02-07T03:10:12;35.35;33.78;37.29;;
66399;Laerm;54877;51.504;3.894;2023-02-07T03:22:39;35.26;33.72;36.85;;
66399;Laerm;54877;51.504;3.894;2023-02-07T03:25:05;35.30;33.90;37.03;;
66399;Laerm;54877;51.504;3.894;2023-02-07T03:27:32;35.29;33.87;36.90;;
66399;Laerm;54877;51.504;3.894;2023-02-07T03:29:58;35.33;33.83;37.29;;
66399;Laerm;54877;51.504;3.894;2023-02-07T03:32:27;35.40;33.78;37.15;;
66399;Laerm;54877;51.504;3.894;2023-02-07T03:34:55;35.52;33.87;37.25;;
66399;Laerm;54877;51.504;3.894;2023-02-07T03:37:27;35.46;34.09;39.76;;
66399;Laerm;54877;51.504;3.894;2023-02-07T03:39:53;35.33;33.87;36.76;;
66399;Laerm;54877;51.504;3.894;2023-02-07T03:44:44;35.50;34.14;37.31;;
66399;Laerm;54877;51.504;3.894;2023-02-07T03:47:09;35.43;33.90;36.88;;
66399;Laerm;54877;51.504;3.894;2023-02-07T03:49:34;35.32;33.99;36.57;;
66399;Laerm;54877;51.504;3.894;2023-02-07T03:52:00;35.66;34.06;37.69;;
66399;Laerm;54877;51.504;3.894;2023-02-07T03:54:25;35.46;34.06;37.61;;
66399;Laerm;54877;51.504;3.894;2023-02-07T03:56:50;35.43;34.22;37.44;;
66399;Laerm;54877;51.504;3.894;2023-02-07T03:59:15;35.40;33.94;37.70;;
66399;Laerm;54877;51.504;3.894;2023-02-07T04:01:41;35.43;33.91;39.16;;
66399;Laerm;54877;51.504;3.894;2023-02-07T04:04:10;35.44;33.95;36.79;;
66399;Laerm;54877;51.504;3.894;2023-02-07T04:06:35;35.64;33.93;38.56;;
66399;Laerm;54877;51.504;3.894;2023-02-07T04:09:01;35.51;34.11;37.05;;
66399;Laerm;54877;51.504;3.894;2023-02-07T04:11:26;35.39;33.94;36.91;;
66399;Laerm;54877;51.504;3.894;2023-02-07T04:13:51;35.36;34.07;36.75;;
66399;Laerm;54877;51.504;3.894;2023-02-07T04:16:17;35.42;33.93;36.92;;
66399;Laerm;54877;51.504;3.894;2023-02-07T04:18:42;35.50;34.11;36.94;;
66399;Laerm;54877;51.504;3.894;2023-02-07T04:21:07;35.70;34.26;37.63;;
66399;Laerm;54877;51.504;3.894;2023-02-07T04:23:33;35.79;34.19;37.54;;
66399;Laerm;54877;51.504;3.894;2023-02-07T04:25:58;35.86;34.06;37.73;;
66399;Laerm;54877;51.504;3.894;2023-02-07T04:28:24;35.76;34.22;41.85;;
66399;Laerm;54877;51.504;3.894;2023-02-07T04:30:49;35.70;34.08;41.10;;
66399;Laerm;54877;51.504;3.894;2023-02-07T04:33:14;35.66;34.08;40.09;;
66399;Laerm;54877;51.504;3.894;2023-02-07T04:35:40;36.03;34.35;40.78;;
66399;Laerm;54877;51.504;3.894;2023-02-07T04:38:05;35.84;34.32;38.51;;
66399;Laerm;54877;51.504;3.894;2023-02-07T04:40:31;36.25;34.47;44.24;;
66399;Laerm;54877;51.504;3.894;2023-02-07T04:42:56;50.01;34.35;67.30;;
66399;Laerm;54877;51.504;3.894;2023-02-07T04:45:21;35.84;34.04;39.04;;
66399;Laerm;54877;51.504;3.894;2023-02-07T04:47:46;35.94;34.42;39.71;;
66399;Laerm;54877;51.504;3.894;2023-02-07T04:50:11;35.87;34.18;38.41;;
66399;Laerm;54877;51.504;3.894;2023-02-07T04:52:37;36.24;34.51;39.74;;
66399;Laerm;54877;51.504;3.894;2023-02-07T04:55:04;36.11;34.60;38.25;;
66399;Laerm;54877;51.504;3.894;2023-02-07T04:57:29;36.30;34.66;38.62;;
66399;Laerm;54877;51.504;3.894;2023-02-07T04:59:54;36.94;34.63;40.14;;
66399;Laerm;54877;51.504;3.894;2023-02-07T05:02:20;36.45;34.40;40.91;;
66399;Laerm;54877;51.504;3.894;2023-02-07T05:04:45;36.29;34.72;38.50;;
66399;Laerm;54877;51.504;3.894;2023-02-07T05:07:10;36.11;34.30;39.39;;
66399;Laerm;54877;51.504;3.894;2023-02-07T05:09:35;37.13;34.61;47.33;;
66399;Laerm;54877;51.504;3.894;2023-02-07T05:12:00;36.59;34.66;51.59;;
66399;Laerm;54877;51.504;3.894;2023-02-07T05:14:26;36.47;34.72;47.18;;
66399;Laerm;54877;51.504;3.894;2023-02-07T05:16:51;36.68;34.83;46.72;;
66399;Laerm;54877;51.504;3.894;2023-02-07T05:19:16;36.78;35.03;42.67;;
66399;Laerm;54877;51.504;3.894;2023-02-07T05:21:41;37.04;34.75;41.20;;
66399;Laerm;54877;51.504;3.894;2023-02-07T05:24:06;53.41;34.99;72.65;;
66399;Laerm;54877;51.504;3.894;2023-02-07T05:26:32;42.08;35.18;58.88;;
66399;Laerm;54877;51.504;3.894;2023-02-07T05:28:57;42.18;39.49;53.69;;
66399;Laerm;54877;51.504;3.894;2023-02-07T05:31:22;50.10;35.29;66.97;;
66399;Laerm;54877;51.504;3.894;2023-02-07T05:34:07;37.28;35.41;43.90;;
66399;Laerm;54877;51.504;3.894;2023-02-07T05:36:32;37.38;35.32;56.04;;
66399;Laerm;54877;51.504;3.894;2023-02-07T05:38:58;37.53;35.31;42.40;;
66399;Laerm;54877;51.504;3.894;2023-02-07T05:41:23;37.58;35.55;53.14;;
66399;Laerm;54877;51.504;3.894;2023-02-07T05:43:48;41.02;35.49;53.68;;
66399;Laerm;54877;51.504;3.894;2023-02-07T05:46:13;37.46;35.77;41.24;;
66399;Laerm;54877;51.504;3.894;2023-02-07T05:48:38;37.80;35.79;40.12;;
66399;Laerm;54877;51.504;3.894;2023-02-07T05:51:04;37.44;35.56;39.90;;
66399;Laerm;54877;51.504;3.894;2023-02-07T05:53:29;40.93;36.07;57.70;;
66399;Laerm;54877;51.504;3.894;2023-02-07T05:55:54;38.34;36.02;54.95;;
66399;Laerm;54877;51.504;3.894;2023-02-07T05:58:19;39.87;36.56;58.95;;
66399;Laerm;54877;51.504;3.894;2023-02-07T06:00:44;47.14;36.33;64.12;;
66399;Laerm;54877;51.504;3.894;2023-02-07T06:03:10;55.44;35.52;69.76;;
66399;Laerm;54877;51.504;3.894;2023-02-07T06:05:36;37.41;35.15;41.07;;
66399;Laerm;54877;51.504;3.894;2023-02-07T06:08:01;59.38;36.65;82.58;;
66399;Laerm;54877;51.504;3.894;2023-02-07T06:10:26;42.70;36.55;52.89;;
66399;Laerm;54877;51.504;3.894;2023-02-07T06:12:51;54.20;36.54;72.98;;
66399;Laerm;54877;51.504;3.894;2023-02-07T06:15:16;38.59;36.28;42.12;;
66399;Laerm;54877;51.504;3.894;2023-02-07T06:17:42;41.35;36.54;61.07;;
66399;Laerm;54877;51.504;3.894;2023-02-07T06:20:07;46.13;41.45;63.15;;
66399;Laerm;54877;51.504;3.894;2023-02-07T06:22:32;44.35;36.81;58.03;;
66399;Laerm;54877;51.504;3.894;2023-02-07T06:24:57;40.03;36.76;49.62;;
66399;Laerm;54877;51.504;3.894;2023-02-07T06:27:23;41.70;36.64;57.71;;
66399;Laerm;54877;51.504;3.894;2023-02-07T06:29:48;52.40;36.70;70.03;;
66399;Laerm;54877;51.504;3.894;2023-02-07T06:32:13;44.25;36.64;63.37;;
66399;Laerm;54877;51.504;3.894;2023-02-07T06:34:38;41.33;36.44;68.33;;
66399;Laerm;54877;51.504;3.894;2023-02-07T06:37:03;56.85;36.59;72.14;;
66399;Laerm;54877;51.504;3.894;2023-02-07T06:39:29;57.02;36.66;73.15;;
66399;Laerm;54877;51.504;3.894;2023-02-07T06:41:54;59.47;36.99;76.32;;
66399;Laerm;54877;51.504;3.894;2023-02-07T06:44:19;57.67;37.56;73.59;;
66399;Laerm;54877;51.504;3.894;2023-02-07T06:46:44;52.55;37.62;70.73;;
66399;Laerm;54877;51.504;3.894;2023-02-07T06:49:10;42.45;37.57;64.57;;
66399;Laerm;54877;51.504;3.894;2023-02-07T06:51:35;43.01;37.18;63.53;;
66399;Laerm;54877;51.504;3.894;2023-02-07T06:54:03;54.80;37.43;70.64;;
66399;Laerm;54877;51.504;3.894;2023-02-07T06:56:32;54.01;38.69;70.42;;
66399;Laerm;54877;51.504;3.894;2023-02-07T06:58:57;52.68;39.21;65.45;;
66399;Laerm;54877;51.504;3.894;2023-02-07T07:01:22;50.76;38.55;67.20;;
66399;Laerm;54877;51.504;3.894;2023-02-07T07:03:48;45.93;39.12;68.83;;
66399;Laerm;54877;51.504;3.894;2023-02-07T07:06:13;54.29;38.69;70.97;;
66399;Laerm;54877;51.504;3.894;2023-02-07T07:08:38;42.51;38.06;65.13;;
66399;Laerm;54877;51.504;3.894;2023-02-07T07:11:03;51.62;37.77;68.61;;
66399;Laerm;54877;51.504;3.894;2023-02-07T07:13:28;45.81;37.46;67.01;;
66399;Laerm;54877;51.504;3.894;2023-02-07T07:15:54;43.98;37.76;59.63;;
66399;Laerm;54877;51.504;3.894;2023-02-07T07:18:19;45.52;38.56;62.02;;
66399;Laerm;54877;51.504;3.894;2023-02-07T07:20:44;60.54;38.53;79.11;;
66399;Laerm;54877;51.504;3.894;2023-02-07T07:23:09;57.02;38.22;74.46;;
66399;Laerm;54877;51.504;3.894;2023-02-07T07:25:34;55.95;37.76;73.93;;
66399;Laerm;54877;51.504;3.894;2023-02-07T07:28:00;60.44;39.60;78.68;;
66399;Laerm;54877;51.504;3.894;2023-02-07T07:30:25;53.79;48.40;68.39;;
66399;Laerm;54877;51.504;3.894;2023-02-07T07:32:50;55.92;48.36;72.71;;
66399;Laerm;54877;51.504;3.894;2023-02-07T07:35:15;55.26;38.36;71.37;;
66399;Laerm;54877;51.504;3.894;2023-02-07T07:37:41;60.06;37.76;73.94;;
66399;Laerm;54877;51.504;3.894;2023-02-07T07:40:06;55.40;38.70;73.50;;
66399;Laerm;54877;51.504;3.894;2023-02-07T07:42:31;56.90;38.78;72.99;;
66399;Laerm;54877;51.504;3.894;2023-02-07T07:44:57;53.06;38.08;68.43;;
66399;Laerm;54877;51.504;3.894;2023-02-07T07:47:22;47.00;38.38;68.44;;
66399;Laerm;54877;51.504;3.894;2023-02-07T07:49:49;61.10;37.76;75.78;;
66399;Laerm;54877;51.504;3.894;2023-02-07T07:52:14;54.20;38.61;69.23;;
66399;Laerm;54877;51.504;3.894;2023-02-07T07:54:39;52.62;39.33;70.44;;
66399;Laerm;54877;51.504;3.894;2023-02-07T07:57:04;60.46;38.89;88.19;;
66399;Laerm;54877;51.504;3.894;2023-02-07T07:59:30;45.96;38.75;59.35;;
66399;Laerm;54877;51.504;3.894;2023-02-07T08:01:55;43.25;37.79;63.26;;
66399;Laerm;54877;51.504;3.894;2023-02-07T08:04:20;42.20;37.57;61.75;;
66399;Laerm;54877;51.504;3.894;2023-02-07T08:06:45;40.94;37.63;51.67;;
66399;Laerm;54877;51.504;3.894;2023-02-07T08:09:11;42.64;37.40;64.75;;
66399;Laerm;54877;51.504;3.894;2023-02-07T08:11:36;42.18;37.82;60.44;;
66399;Laerm;54877;51.504;3.894;2023-02-07T08:14:01;68.98;40.87;84.46;;
66399;Laerm;54877;51.504;3.894;2023-02-07T08:16:26;55.04;38.04;73.22;;
66399;Laerm;54877;51.504;3.894;2023-02-07T08:18:52;51.84;38.07;70.30;;
66399;Laerm;54877;51.504;3.894;2023-02-07T08:21:17;43.82;37.76;60.98;;
66399;Laerm;54877;51.504;3.894;2023-02-07T08:23:42;43.86;37.04;71.71;;
66399;Laerm;54877;51.504;3.894;2023-02-07T08:26:07;45.16;37.71;63.26;;
66399;Laerm;54877;51.504;3.894;2023-02-07T08:28:33;52.50;37.29;73.21;;
66399;Laerm;54877;51.504;3.894;2023-02-07T08:30:59;45.47;37.18;63.86;;
66399;Laerm;54877;51.504;3.894;2023-02-07T08:33:25;44.76;38.32;64.67;;
66399;Laerm;54877;51.504;3.894;2023-02-07T08:35:50;51.48;37.55;68.37;;
66399;Laerm;54877;51.504;3.894;2023-02-07T08:38:15;43.00;37.24;64.03;;
66399;Laerm;54877;51.504;3.894;2023-02-07T08:40:40;45.62;37.92;69.63;;
66399;Laerm;54877;51.504;3.894;2023-02-07T08:43:06;44.43;36.43;63.50;;
66399;Laerm;54877;51.504;3.894;2023-02-07T08:45:36;51.56;37.47;68.40;;
66399;Laerm;54877;51.504;3.894;2023-02-07T08:48:01;50.63;36.35;67.04;;
66399;Laerm;54877;51.504;3.894;2023-02-07T08:50:26;42.25;36.38;57.10;;
66399;Laerm;54877;51.504;3.894;2023-02-07T08:52:51;43.96;37.26;61.36;;
66399;Laerm;54877;51.504;3.894;2023-02-07T08:55:16;44.19;36.65;65.84;;
66399;Laerm;54877;51.504;3.894;2023-02-07T08:57:42;42.94;36.43;56.25;;
66399;Laerm;54877;51.504;3.894;2023-02-07T09:00:07;45.59;37.38;65.01;;
66399;Laerm;54877;51.504;3.894;2023-02-07T09:02:32;52.18;36.50;74.21;;
66399;Laerm;54877;51.504;3.894;2023-02-07T09:04:58;56.56;35.95;76.51;;
66399;Laerm;54877;51.504;3.894;2023-02-07T09:07:23;50.47;35.75;64.60;;
66399;Laerm;54877;51.504;3.894;2023-02-07T09:09:48;46.90;36.35;61.52;;
66399;Laerm;54877;51.504;3.894;2023-02-07T09:12:13;46.60;36.51;60.70;;
66399;Laerm;54877;51.504;3.894;2023-02-07T09:14:39;57.29;37.22;76.15;;
66399;Laerm;54877;51.504;3.894;2023-02-07T09:17:04;40.18;35.47;63.33;;
66399;Laerm;54877;51.504;3.894;2023-02-07T09:19:30;41.34;36.30;58.60;;
66399;Laerm;54877;51.504;3.894;2023-02-07T09:21:55;53.34;36.66;72.83;;
66399;Laerm;54877;51.504;3.894;2023-02-07T09:24:20;50.54;36.73;65.90;;
66399;Laerm;54877;51.504;3.894;2023-02-07T09:26:45;63.68;37.24;83.16;;
66399;Laerm;54877;51.504;3.894;2023-02-07T09:29:14;52.11;36.94;71.18;;
66399;Laerm;54877;51.504;3.894;2023-02-07T09:31:40;53.34;36.70;72.17;;
66399;Laerm;54877;51.504;3.894;2023-02-07T09:34:05;42.01;35.88;56.38;;
66399;Laerm;54877;51.504;3.894;2023-02-07T09:36:30;52.39;35.60;70.46;;
66399;Laerm;54877;51.504;3.894;2023-02-07T09:38:56;49.97;35.45;66.91;;
66399;Laerm;54877;51.504;3.894;2023-02-07T09:46:23;43.69;35.52;55.78;;
66399;Laerm;54877;51.504;3.894;2023-02-07T09:48:53;46.52;35.59;63.84;;
66399;Laerm;54877;51.504;3.894;2023-02-07T09:51:19;47.62;35.52;68.66;;
66399;Laerm;54877;51.504;3.894;2023-02-07T09:53:50;44.06;34.79;62.17;;
66399;Laerm;54877;51.504;3.894;2023-02-07T09:56:18;39.60;34.81;63.06;;
66399;Laerm;54877;51.504;3.894;2023-02-07T09:58:46;39.93;34.97;61.24;;
66399;Laerm;54877;51.504;3.894;2023-02-07T10:01:17;43.83;34.90;67.69;;
66399;Laerm;54877;51.504;3.894;2023-02-07T10:06:27;42.34;34.62;64.88;;
66399;Laerm;54877;51.504;3.894;2023-02-07T10:08:54;40.39;35.07;53.47;;
66399;Laerm;54877;51.504;3.894;2023-02-07T10:14:03;57.70;34.98;76.77;;
66399;Laerm;54877;51.504;3.894;2023-02-07T10:16:43;40.94;34.81;58.70;;
66399;Laerm;54877;51.504;3.894;2023-02-07T10:19:20;48.66;34.76;67.10;;
66399;Laerm;54877;51.504;3.894;2023-02-07T10:21:50;53.18;35.27;73.00;;
66399;Laerm;54877;51.504;3.894;2023-02-07T10:24:26;50.25;35.58;67.07;;
66399;Laerm;54877;51.504;3.894;2023-02-07T10:26:53;48.43;34.35;69.35;;
66399;Laerm;54877;51.504;3.894;2023-02-07T10:31:46;40.22;34.98;58.66;;
66399;Laerm;54877;51.504;3.894;2023-02-07T10:34:13;38.27;34.54;53.42;;
66399;Laerm;54877;51.504;3.894;2023-02-07T10:36:42;43.00;34.89;55.80;;
66399;Laerm;54877;51.504;3.894;2023-02-07T10:39:21;42.93;34.90;61.34;;
66399;Laerm;54877;51.504;3.894;2023-02-07T10:41:48;40.26;34.67;55.10;;
66399;Laerm;54877;51.504;3.894;2023-02-07T10:44:17;41.06;34.88;63.57;;
66399;Laerm;54877;51.504;3.894;2023-02-07T10:46:43;57.42;35.17;73.91;;
66399;Laerm;54877;51.504;3.894;2023-02-07T10:49:19;44.75;35.24;55.65;;
66399;Laerm;54877;51.504;3.894;2023-02-07T10:51:45;40.73;34.54;60.47;;
66399;Laerm;54877;51.504;3.894;2023-02-07T10:54:14;41.10;35.53;59.57;;
66399;Laerm;54877;51.504;3.894;2023-02-07T10:56:50;58.72;35.85;79.51;;
66399;Laerm;54877;51.504;3.894;2023-02-07T10:59:29;52.49;35.77;71.32;;
66399;Laerm;54877;51.504;3.894;2023-02-07T11:01:55;53.01;35.30;72.28;;
66399;Laerm;54877;51.504;3.894;2023-02-07T11:04:34;49.97;34.80;69.83;;
66399;Laerm;54877;51.504;3.894;2023-02-07T11:07:00;40.15;34.71;52.70;;
66399;Laerm;54877;51.504;3.894;2023-02-07T11:09:26;45.57;35.93;64.00;;
66399;Laerm;54877;51.504;3.894;2023-02-07T11:11:52;38.79;35.61;49.75;;
66399;Laerm;54877;51.504;3.894;2023-02-07T11:14:22;43.37;35.72;62.12;;
66399;Laerm;54877;51.504;3.894;2023-02-07T11:16:59;40.37;35.33;50.74;;
66399;Laerm;54877;51.504;3.894;2023-02-07T11:19:28;51.84;35.15;69.53;;
66399;Laerm;54877;51.504;3.894;2023-02-07T11:21:56;55.49;35.11;74.91;;
66399;Laerm;54877;51.504;3.894;2023-02-07T11:24:29;50.71;34.55;75.47;;
66399;Laerm;54877;51.504;3.894;2023-02-07T11:27:05;53.90;35.09;73.01;;
66399;Laerm;54877;51.504;3.894;2023-02-07T11:29:43;56.42;36.04;71.46;;
66399;Laerm;54877;51.504;3.894;2023-02-07T11:32:12;51.27;34.69;69.55;;
66399;Laerm;54877;51.504;3.894;2023-02-07T11:34:48;39.75;34.38;54.65;;
66399;Laerm;54877;51.504;3.894;2023-02-07T11:37:28;56.21;34.37;76.51;;
66399;Laerm;54877;51.504;3.894;2023-02-07T11:39:55;40.58;34.21;60.93;;
66399;Laerm;54877;51.504;3.894;2023-02-07T11:42:22;47.00;34.37;72.72;;
66399;Laerm;54877;51.504;3.894;2023-02-07T11:44:48;53.57;35.10;76.20;;
66399;Laerm;54877;51.504;3.894;2023-02-07T11:47:15;54.43;34.67;72.80;;
66399;Laerm;54877;51.504;3.894;2023-02-07T11:49:46;54.29;35.02;70.54;;
66399;Laerm;54877;51.504;3.894;2023-02-07T11:52:12;46.27;35.13;66.94;;
66399;Laerm;54877;51.504;3.894;2023-02-07T11:54:40;53.16;34.73;73.25;;
66399;Laerm;54877;51.504;3.894;2023-02-07T11:57:09;44.20;34.75;62.15;;
66399;Laerm;54877;51.504;3.894;2023-02-07T11:59:36;51.69;34.64;68.18;;
66399;Laerm;54877;51.504;3.894;2023-02-07T12:02:16;54.59;35.14;73.28;;
66399;Laerm;54877;51.504;3.894;2023-02-07T12:04:42;54.15;35.04;72.29;;
66399;Laerm;54877;51.504;3.894;2023-02-07T12:07:17;38.58;34.90;53.58;;
66399;Laerm;54877;51.504;3.894;2023-02-07T12:09:51;39.11;34.59;62.02;;
66399;Laerm;54877;51.504;3.894;2023-02-07T12:20:19;43.08;33.78;65.29;;
66399;Laerm;54877;51.504;3.894;2023-02-07T12:22:49;44.91;34.74;64.59;;
66399;Laerm;54877;51.504;3.894;2023-02-07T12:25:19;42.00;34.92;59.58;;
66399;Laerm;54877;51.504;3.894;2023-02-07T12:27:45;44.25;34.69;65.19;;
66399;Laerm;54877;51.504;3.894;2023-02-07T12:32:45;43.62;34.79;58.48;;
66399;Laerm;54877;51.504;3.894;2023-02-07T12:43:06;42.00;35.21;61.41;;
66399;Laerm;54877;51.504;3.894;2023-02-07T12:45:48;60.73;34.84;82.19;;
66399;Laerm;54877;51.504;3.894;2023-02-07T12:48:27;40.75;34.21;58.09;;
66399;Laerm;54877;51.504;3.894;2023-02-07T12:54:39;49.25;34.47;65.26;;
66399;Laerm;54877;51.504;3.894;2023-02-07T13:04:46;40.93;34.42;54.02;;
66399;Laerm;54877;51.504;3.894;2023-02-07T13:12:04;52.13;36.78;69.70;;
66399;Laerm;54877;51.504;3.894;2023-02-07T13:19:43;45.79;34.00;72.98;;
66399;Laerm;54877;51.504;3.894;2023-02-07T13:22:16;49.75;35.59;71.40;;
66399;Laerm;54877;51.504;3.894;2023-02-07T13:24:45;46.51;34.78;64.59;;
66399;Laerm;54877;51.504;3.894;2023-02-07T13:27:13;57.07;33.76;73.21;;
66399;Laerm;54877;51.504;3.894;2023-02-07T13:29:41;40.21;34.30;55.39;;
66399;Laerm;54877;51.504;3.894;2023-02-07T13:32:09;57.34;34.20;75.04;;
66399;Laerm;54877;51.504;3.894;2023-02-07T13:37:18;43.71;36.00;62.00;;
66399;Laerm;54877;51.504;3.894;2023-02-07T13:39:57;55.12;34.67;73.47;;
66399;Laerm;54877;51.504;3.894;2023-02-07T13:45:00;45.48;34.42;64.37;;
66399;Laerm;54877;51.504;3.894;2023-02-07T14:00:17;49.19;34.70;70.53;;
66399;Laerm;54877;51.504;3.894;2023-02-07T14:02:48;52.93;34.37;72.40;;
66399;Laerm;54877;51.504;3.894;2023-02-07T14:05:18;52.32;34.62;69.70;;
66399;Laerm;54877;51.504;3.894;2023-02-07T14:07:47;40.38;34.47;57.47;;
66399;Laerm;54877;51.504;3.894;2023-02-07T14:10:31;43.23;35.22;63.94;;
66399;Laerm;54877;51.504;3.894;2023-02-07T14:12:58;58.79;34.43;77.10;;
66399;Laerm;54877;51.504;3.894;2023-02-07T14:23:13;48.01;34.76;69.99;;
66399;Laerm;54877;51.504;3.894;2023-02-07T14:25:40;51.24;34.00;67.59;;
66399;Laerm;54877;51.504;3.894;2023-02-07T14:28:16;43.68;33.97;62.79;;
66399;Laerm;54877;51.504;3.894;2023-02-07T14:38:30;46.04;36.39;67.26;;
66399;Laerm;54877;51.504;3.894;2023-02-07T14:41:00;47.08;34.15;68.92;;
66399;Laerm;54877;51.504;3.894;2023-02-07T14:43:32;58.91;34.17;76.84;;
66399;Laerm;54877;51.504;3.894;2023-02-07T14:46:06;52.24;33.92;70.40;;
66399;Laerm;54877;51.504;3.894;2023-02-07T14:53:54;52.86;34.50;67.70;;
66399;Laerm;54877;51.504;3.894;2023-02-07T14:59:02;46.37;33.81;65.87;;
66399;Laerm;54877;51.504;3.894;2023-02-07T15:01:27;45.54;34.13;65.13;;
66399;Laerm;54877;51.504;3.894;2023-02-07T15:03:59;44.58;34.18;63.32;;
66399;Laerm;54877;51.504;3.894;2023-02-07T15:06:25;45.05;33.53;69.03;;
66399;Laerm;54877;51.504;3.894;2023-02-07T15:09:02;48.14;34.48;66.88;;
66399;Laerm;54877;51.504;3.894;2023-02-07T15:11:28;44.23;33.19;64.34;;
66399;Laerm;54877;51.504;3.894;2023-02-07T15:14:02;50.58;33.10;68.28;;
66399;Laerm;54877;51.504;3.894;2023-02-07T15:16:30;54.03;33.35;72.71;;
66399;Laerm;54877;51.504;3.894;2023-02-07T15:24:03;41.88;33.99;57.78;;
66399;Laerm;54877;51.504;3.894;2023-02-07T15:26:29;39.40;33.52;52.88;;
66399;Laerm;54877;51.504;3.894;2023-02-07T15:28:58;52.16;32.81;69.93;;
66399;Laerm;54877;51.504;3.894;2023-02-07T15:31:24;62.63;33.78;80.60;;
66399;Laerm;54877;51.504;3.894;2023-02-07T15:33:51;40.36;33.65;65.26;;
66399;Laerm;54877;51.504;3.894;2023-02-07T15:39:03;53.80;33.93;73.15;;
66399;Laerm;54877;51.504;3.894;2023-02-07T15:41:29;49.95;33.69;66.87;;
66399;Laerm;54877;51.504;3.894;2023-02-07T15:43:55;56.10;33.63;72.54;;
66399;Laerm;54877;51.504;3.894;2023-02-07T15:46:21;44.57;33.84;60.96;;
66399;Laerm;54877;51.504;3.894;2023-02-07T15:48:48;54.46;36.27;68.83;;
66399;Laerm;54877;51.504;3.894;2023-02-07T15:51:13;56.59;33.80;75.97;;
66399;Laerm;54877;51.504;3.894;2023-02-07T15:53:40;37.21;33.95;52.43;;
66399;Laerm;54877;51.504;3.894;2023-02-07T15:56:05;43.66;33.93;57.21;;
66399;Laerm;54877;51.504;3.894;2023-02-07T15:58:34;53.62;35.22;71.24;;
66399;Laerm;54877;51.504;3.894;2023-02-07T16:01:01;42.59;33.85;54.33;;
66399;Laerm;54877;51.504;3.894;2023-02-07T16:03:32;48.02;33.95;64.73;;